Time,TemperatureF,DewpointF,PressureIn,WindDirection,WindDirectionDegrees,WindSpeedMPH,WindSpeedGustMPH,Humidity,HourlyPrecipIn,Conditions,Clouds,dailyrainin,SolarRadiationWatts/m^2,SoftwareType,DateUTC
2013-06-13 00:02:00,79.3,75.7,29.97,South,182,0.0,0.0,89,0.00,,,0.00,0.0,meteohub,2013-06-13 04:02:00,
2013-06-13 00:03:00,79.3,75.7,29.97,South,182,0.0,0.0,89,0.00,,,0.00,0.0,meteohub,2013-06-13 04:03:00,
2013-06-13 00:06:00,79.2,75.6,29.97,South,182,0.0,0.0,89,0.00,,,0.00,0.0,meteohub,2013-06-13 04:06:00,
2013-06-13 00:09:00,79.2,75.6,29.98,SW,225,0.0,0.0,89,0.00,,,0.00,0.0,meteohub,2013-06-13 04:09:00,
2013-06-13 00:15:00,79.2,75.9,29.97,West,262,0.0,1.0,90,0.00,,,0.00,0.0,meteohub,2013-06-13 04:15:00,
2013-06-13 00:18:00,79.2,75.9,29.97,WNW,290,1.0,1.0,90,0.00,,,0.00,0.0,meteohub,2013-06-13 04:18:00,
2013-06-13 00:24:00,79.3,76.1,29.97,West,281,0.0,5.0,90,0.00,,,0.00,0.0,meteohub,2013-06-13 04:24:00,
2013-06-13 00:30:00,79.5,75.9,29.97,West,279,3.0,5.0,89,0.00,,,0.00,0.0,meteohub,2013-06-13 04:30:00,
2013-06-13 00:37:00,79.9,76.3,29.96,WNW,286,1.0,5.0,89,0.00,,,0.00,0.0,meteohub,2013-06-13 04:37:00,
2013-06-13 00:42:00,80.1,76.5,29.96,WNW,286,1.0,4.0,89,0.00,,,0.00,0.0,meteohub,2013-06-13 04:42:00,
2013-06-13 00:47:00,80.1,76.1,29.96,WNW,286,1.0,4.0,88,0.00,,,0.00,0.0,meteohub,2013-06-13 04:47:00,
2013-06-13 00:52:00,80.2,76.3,29.96,WNW,286,0.0,5.0,88,0.00,,,0.00,0.0,meteohub,2013-06-13 04:52:00,
2013-06-13 00:57:00,80.2,76.3,29.96,WNW,286,0.0,5.0,88,0.00,,,0.00,0.0,meteohub,2013-06-13 04:57:00,
2013-06-13 01:02:00,80.2,76.3,29.96,WNW,282,2.0,5.0,88,0.00,,,0.00,0.0,meteohub,2013-06-13 05:02:00,
2013-06-13 01:07:00,80.2,76.3,29.96,West,270,0.0,5.0,88,0.00,,,0.00,0.0,meteohub,2013-06-13 05:07:00,
2013-06-13 01:12:00,80.2,76.3,29.96,West,269,1.0,4.0,88,0.00,,,0.00,0.0,meteohub,2013-06-13 05:12:00,
2013-06-13 01:17:00,80.2,76.3,29.96,West,281,0.0,4.0,88,0.00,,,0.00,0.0,meteohub,2013-06-13 05:17:00,
2013-06-13 01:22:00,80.2,76.3,29.96,West,270,0.0,4.0,88,0.00,,,0.00,0.0,meteohub,2013-06-13 05:22:00,
2013-06-13 01:27:00,80.2,76.3,29.96,West,269,0.0,4.0,88,0.00,,,0.00,0.0,meteohub,2013-06-13 05:27:00,
2013-06-13 01:32:00,80.2,76.3,29.96,West,277,0.0,5.0,88,0.00,,,0.00,0.0,meteohub,2013-06-13 05:32:00,
2013-06-13 01:38:00,80.1,76.1,29.96,West,277,0.0,5.0,88,0.00,,,0.00,0.0,meteohub,2013-06-13 05:38:00,
2013-06-13 01:44:00,80.1,76.1,29.96,WSW,257,2.0,5.0,88,0.00,,,0.00,0.0,meteohub,2013-06-13 05:44:00,
2013-06-13 01:50:00,79.9,75.9,29.95,West,276,0.0,4.0,88,0.00,,,0.00,0.0,meteohub,2013-06-13 05:50:00,
2013-06-13 01:57:00,79.9,75.9,29.95,West,280,0.0,4.0,88,0.00,,,0.00,0.0,meteohub,2013-06-13 05:57:00,
2013-06-13 02:02:00,79.7,75.7,29.95,West,275,0.0,5.0,88,0.00,,,0.00,0.0,meteohub,2013-06-13 06:02:00,
2013-06-13 02:07:00,79.5,75.6,29.94,West,274,0.0,5.0,88,0.00,,,0.00,0.0,meteohub,2013-06-13 06:07:00,
2013-06-13 02:12:00,79.5,75.6,29.94,West,274,0.0,3.0,88,0.00,,,0.00,0.0,meteohub,2013-06-13 06:12:00,
2013-06-13 02:18:00,79.3,75.6,29.94,West,271,0.0,3.0,88,0.00,,,0.00,0.0,meteohub,2013-06-13 06:18:00,
2013-06-13 02:24:00,79.2,75.4,29.94,West,281,0.0,3.0,88,0.00,,,0.00,0.0,meteohub,2013-06-13 06:24:00,
2013-06-13 02:30:00,79.2,75.4,29.94,WNW,284,0.0,2.0,88,0.00,,,0.00,0.0,meteohub,2013-06-13 06:30:00,
2013-06-13 02:37:00,79.0,75.2,29.93,WNW,284,0.0,3.0,88,0.00,,,0.00,0.0,meteohub,2013-06-13 06:37:00,
2013-06-13 02:42:00,79.0,75.2,29.93,WNW,284,0.0,3.0,88,0.00,,,0.00,0.0,meteohub,2013-06-13 06:42:00,
2013-06-13 02:49:00,78.6,74.8,29.93,West,279,0.0,2.0,88,0.00,,,0.00,0.0,meteohub,2013-06-13 06:49:00,
2013-06-13 02:55:00,78.4,74.3,29.93,WSW,257,0.0,3.0,87,0.00,,,0.00,0.0,meteohub,2013-06-13 06:55:00,
2013-06-13 03:01:00,78.4,74.3,29.93,West,279,0.0,4.0,87,0.00,,,0.00,0.0,meteohub,2013-06-13 07:01:00,
2013-06-13 03:07:00,78.4,74.3,29.93,West,276,1.0,4.0,87,0.00,,,0.00,0.0,meteohub,2013-06-13 07:07:00,
2013-06-13 03:12:00,78.4,74.3,29.93,West,277,1.0,4.0,87,0.00,,,0.00,0.0,meteohub,2013-06-13 07:12:00,
2013-06-13 03:17:00,78.3,74.1,29.93,West,260,0.0,3.0,87,0.00,,,0.00,0.0,meteohub,2013-06-13 07:17:00,
2013-06-13 03:22:00,78.3,74.1,29.93,West,266,0.0,3.0,87,0.00,,,0.00,0.0,meteohub,2013-06-13 07:22:00,
2013-06-13 03:29:00,78.3,74.1,29.93,WSW,254,0.0,3.0,87,0.00,,,0.00,0.0,meteohub,2013-06-13 07:29:00,
2013-06-13 03:35:00,78.1,73.9,29.93,WSW,254,0.0,3.0,87,0.00,,,0.00,0.0,meteohub,2013-06-13 07:35:00,
2013-06-13 03:41:00,78.1,73.9,29.93,WSW,254,0.0,3.0,87,0.00,,,0.00,0.0,meteohub,2013-06-13 07:41:00,
2013-06-13 03:47:00,78.1,74.3,29.93,WSW,254,0.0,3.0,88,0.00,,,0.00,0.0,meteohub,2013-06-13 07:47:00,
2013-06-13 03:54:00,77.7,73.9,29.93,WSW,248,0.0,2.0,88,0.00,,,0.00,0.0,meteohub,2013-06-13 07:54:00,
2013-06-13 04:00:00,77.7,73.9,29.93,WSW,248,0.0,3.0,88,0.00,,,0.00,0.0,meteohub,2013-06-13 08:00:00,
2013-06-13 04:06:00,77.7,73.9,29.93,WSW,248,0.0,3.0,88,0.00,,,0.00,0.0,meteohub,2013-06-13 08:06:00,
2013-06-13 04:12:00,77.5,74.1,29.94,WSW,248,0.0,2.0,89,0.00,,,0.00,0.0,meteohub,2013-06-13 08:12:00,
2013-06-13 04:18:00,77.5,74.1,29.93,WSW,246,0.0,2.0,89,0.00,,,0.00,0.0,meteohub,2013-06-13 08:18:00,
2013-06-13 04:24:00,77.5,74.1,29.93,WSW,246,0.0,2.0,89,0.00,,,0.00,0.0,meteohub,2013-06-13 08:24:00,
2013-06-13 04:31:00,77.5,74.1,29.93,WSW,246,0.0,2.0,89,0.00,,,0.00,0.0,meteohub,2013-06-13 08:31:00,
2013-06-13 04:37:00,77.4,74.1,29.93,West,267,0.0,2.0,90,0.00,,,0.00,0.0,meteohub,2013-06-13 08:37:00,
2013-06-13 04:42:00,77.4,74.1,29.93,West,267,0.0,3.0,90,0.00,,,0.00,0.0,meteohub,2013-06-13 08:42:00,
2013-06-13 04:49:00,77.4,74.1,29.93,West,267,0.0,3.0,90,0.00,,,0.00,0.0,meteohub,2013-06-13 08:49:00,
2013-06-13 04:55:00,77.2,73.9,29.93,West,267,0.0,3.0,90,0.00,,,0.00,0.0,meteohub,2013-06-13 08:55:00,
2013-06-13 05:02:00,77.2,74.3,29.93,West,267,0.0,2.0,91,0.00,,,0.00,0.0,meteohub,2013-06-13 09:02:00,
2013-06-13 05:07:00,77.2,74.3,29.93,West,267,0.0,2.0,91,0.00,,,0.00,0.0,meteohub,2013-06-13 09:07:00,
2013-06-13 05:12:00,77.2,74.3,29.93,West,267,0.0,1.0,91,0.00,,,0.00,0.0,meteohub,2013-06-13 09:12:00,
2013-06-13 05:17:00,77.0,74.1,29.93,West,267,0.0,1.0,91,0.00,,,0.00,0.0,meteohub,2013-06-13 09:17:00,
2013-06-13 05:23:00,76.8,73.9,29.93,West,267,0.0,1.0,91,0.00,,,0.00,0.0,meteohub,2013-06-13 09:23:00,
2013-06-13 05:29:00,76.8,73.9,29.93,West,267,0.0,1.0,91,0.00,,,0.00,0.0,meteohub,2013-06-13 09:29:00,
2013-06-13 05:36:00,76.6,74.1,29.93,West,267,0.0,1.0,92,0.00,,,0.00,0.0,meteohub,2013-06-13 09:36:00,
2013-06-13 05:42:00,76.6,74.1,29.94,West,271,0.0,1.0,92,0.00,,,0.00,0.0,meteohub,2013-06-13 09:42:00,
2013-06-13 05:48:00,76.6,74.1,29.94,West,271,0.0,1.0,92,0.00,,,0.00,0.0,meteohub,2013-06-13 09:48:00,
2013-06-13 05:54:00,76.6,74.1,29.94,West,271,0.0,4.0,92,0.00,,,0.00,0.0,meteohub,2013-06-13 09:54:00,
2013-06-13 06:00:00,76.6,74.5,29.94,West,271,0.0,1.0,93,0.00,,,0.00,0.0,meteohub,2013-06-13 10:00:00,
2013-06-13 06:07:00,76.6,74.5,29.94,West,271,0.0,1.0,93,0.00,,,0.00,0.0,meteohub,2013-06-13 10:07:00,
2013-06-13 06:12:00,76.6,74.5,29.94,West,271,0.0,1.0,93,0.00,,,0.00,0.0,meteohub,2013-06-13 10:12:00,
2013-06-13 06:17:00,76.5,74.3,29.94,West,271,0.0,1.0,93,0.00,,,0.00,0.0,meteohub,2013-06-13 10:17:00,
2013-06-13 06:22:00,76.5,74.3,29.94,West,271,0.0,1.0,93,0.00,,,0.00,0.0,meteohub,2013-06-13 10:22:00,
2013-06-13 06:27:00,76.5,74.3,29.95,West,271,0.0,1.0,93,0.00,,,0.00,5.0,meteohub,2013-06-13 10:27:00,
2013-06-13 06:35:00,76.5,74.7,29.95,West,271,0.0,1.0,94,0.00,,,0.00,11.0,meteohub,2013-06-13 10:35:00,
2013-06-13 06:41:00,76.6,74.8,29.95,West,272,0.0,3.0,94,0.00,,,0.00,14.0,meteohub,2013-06-13 10:41:00,
2013-06-13 06:47:00,76.6,74.8,29.95,West,272,0.0,3.0,94,0.00,,,0.00,18.0,meteohub,2013-06-13 10:47:00,
2013-06-13 06:53:00,76.6,74.8,29.95,West,272,1.0,3.0,94,0.00,,,0.00,23.0,meteohub,2013-06-13 10:53:00,
2013-06-13 06:59:00,76.6,74.8,29.95,West,272,0.0,1.0,94,0.00,,,0.00,28.0,meteohub,2013-06-13 10:59:00,
2013-06-13 07:06:00,76.6,74.8,29.95,West,272,0.0,1.0,94,0.00,,,0.00,33.0,meteohub,2013-06-13 11:06:00,
2013-06-13 07:12:00,76.6,74.8,29.95,West,272,0.0,1.0,94,0.00,,,0.00,37.0,meteohub,2013-06-13 11:12:00,
2013-06-13 07:18:00,76.8,75.0,29.95,West,272,0.0,1.0,94,0.00,,,0.00,47.0,meteohub,2013-06-13 11:18:00,
2013-06-13 07:24:00,76.8,75.2,29.96,West,272,0.0,1.0,95,0.00,,,0.00,47.0,meteohub,2013-06-13 11:24:00,
2013-06-13 07:30:00,77.2,75.6,29.96,West,272,0.0,1.0,95,0.00,,,0.00,67.0,meteohub,2013-06-13 11:30:00,
2013-06-13 07:36:00,77.2,75.6,29.96,West,265,0.0,1.0,95,0.00,,,0.00,58.0,meteohub,2013-06-13 11:36:00,
2013-06-13 07:42:00,77.4,75.7,29.96,West,272,1.0,4.0,95,0.00,,,0.00,60.0,meteohub,2013-06-13 11:42:00,
2013-06-13 07:47:00,77.5,75.9,29.96,West,274,3.0,4.0,95,0.00,,,0.00,62.0,meteohub,2013-06-13 11:47:00,
2013-06-13 07:52:00,77.5,75.9,29.96,West,275,2.0,4.0,95,0.00,,,0.00,65.0,meteohub,2013-06-13 11:52:00,
2013-06-13 07:58:00,77.7,76.1,29.97,West,275,3.0,4.0,95,0.00,,,0.00,70.0,meteohub,2013-06-13 11:58:00,
2013-06-13 08:04:00,77.9,76.3,29.96,West,275,0.0,4.0,95,0.00,,,0.00,72.0,meteohub,2013-06-13 12:04:00,
2013-06-13 08:10:00,78.1,76.5,29.96,SW,234,1.0,3.0,95,0.00,,,0.00,76.0,meteohub,2013-06-13 12:10:00,
2013-06-13 08:17:00,78.3,76.6,29.96,West,263,1.0,3.0,95,0.00,,,0.00,79.0,meteohub,2013-06-13 12:17:00,
2013-06-13 08:22:00,78.4,76.8,29.96,West,279,2.0,4.0,95,0.00,,,0.00,81.0,meteohub,2013-06-13 12:22:00,
2013-06-13 08:29:00,78.8,77.0,29.97,SW,228,0.0,4.0,94,0.00,,,0.00,84.0,meteohub,2013-06-13 12:29:00,
2013-06-13 08:35:00,79.2,77.4,29.97,West,263,0.0,7.0,94,0.00,,,0.00,88.0,meteohub,2013-06-13 12:35:00,
2013-06-13 08:41:00,79.3,77.5,29.97,West,263,0.0,7.0,94,0.00,,,0.00,91.0,meteohub,2013-06-13 12:41:00,
2013-06-13 08:47:00,79.7,77.9,29.97,West,271,2.0,7.0,94,0.00,,,0.00,93.0,meteohub,2013-06-13 12:47:00,
2013-06-13 08:54:00,80.2,78.1,29.97,West,274,1.0,4.0,93,0.00,,,0.00,137.0,meteohub,2013-06-13 12:54:00,
2013-06-13 09:00:00,80.4,77.9,29.97,West,261,2.0,4.0,92,0.00,,,0.00,332.0,meteohub,2013-06-13 13:00:00,
2013-06-13 09:06:00,81.0,78.4,29.97,NE,55,0.0,4.0,92,0.00,,,0.00,406.0,meteohub,2013-06-13 13:06:00,
2013-06-13 09:12:00,82.2,78.3,29.97,West,269,0.0,4.0,88,0.00,,,0.00,417.0,meteohub,2013-06-13 13:12:00,
2013-06-13 09:19:00,83.8,78.8,29.98,West,259,1.0,4.0,85,0.00,,,0.00,439.0,meteohub,2013-06-13 13:19:00,
2013-06-13 09:25:00,84.0,79.0,29.97,WSW,252,0.0,4.0,85,0.00,,,0.00,457.0,meteohub,2013-06-13 13:25:00,
2013-06-13 09:31:00,84.2,78.8,29.97,West,261,0.0,3.0,84,0.00,,,0.00,482.0,meteohub,2013-06-13 13:31:00,
2013-06-13 09:37:00,84.6,78.8,29.97,WSW,244,1.0,3.0,83,0.00,,,0.00,492.0,meteohub,2013-06-13 13:37:00,
2013-06-13 09:42:00,85.1,79.3,29.97,WSW,244,0.0,2.0,83,0.00,,,0.00,512.0,meteohub,2013-06-13 13:42:00,
2013-06-13 09:47:00,85.8,79.7,29.97,WSW,237,1.0,2.0,82,0.00,,,0.00,531.0,meteohub,2013-06-13 13:47:00,
2013-06-13 09:52:00,86.0,79.2,29.97,WSW,257,0.0,5.0,80,0.00,,,0.00,533.0,meteohub,2013-06-13 13:52:00,
2013-06-13 09:59:00,86.2,79.3,29.96,West,274,0.0,5.0,80,0.00,,,0.00,570.0,meteohub,2013-06-13 13:59:00,
2013-06-13 10:05:00,86.5,79.2,29.96,WSW,252,0.0,5.0,79,0.00,,,0.00,596.0,meteohub,2013-06-13 14:05:00,
2013-06-13 10:11:00,87.1,79.3,29.95,WSW,238,0.0,6.0,78,0.00,,,0.00,619.0,meteohub,2013-06-13 14:11:00,
2013-06-13 10:17:00,87.3,79.2,29.96,West,259,1.0,6.0,77,0.00,,,0.00,636.0,meteohub,2013-06-13 14:17:00,
2013-06-13 10:24:00,87.6,79.2,29.95,WSW,252,0.0,3.0,76,0.00,,,0.00,657.0,meteohub,2013-06-13 14:24:00,
2013-06-13 10:30:00,88.3,78.6,29.95,West,273,1.0,4.0,73,0.00,,,0.00,677.0,meteohub,2013-06-13 14:30:00,
2013-06-13 10:36:00,88.5,78.8,29.95,WSW,248,0.0,4.0,73,0.00,,,0.00,691.0,meteohub,2013-06-13 14:36:00,
2013-06-13 10:42:00,89.1,79.3,29.95,West,265,2.0,7.0,73,0.00,,,0.00,707.0,meteohub,2013-06-13 14:42:00,
2013-06-13 10:49:00,89.2,79.0,29.96,SW,234,0.0,3.0,72,0.00,,,0.00,724.0,meteohub,2013-06-13 14:49:00,
2013-06-13 10:55:00,89.4,79.2,29.95,WSW,246,2.0,4.0,72,0.00,,,0.00,742.0,meteohub,2013-06-13 14:55:00,
2013-06-13 11:01:00,89.4,79.2,29.95,SW,222,0.0,7.0,72,0.00,,,0.00,759.0,meteohub,2013-06-13 15:01:00,
2013-06-13 11:07:00,90.0,78.8,29.95,SW,224,0.0,7.0,70,0.00,,,0.00,763.0,meteohub,2013-06-13 15:07:00,
2013-06-13 11:13:00,90.1,79.0,29.95,WSW,247,0.0,6.0,70,0.00,,,0.00,788.0,meteohub,2013-06-13 15:13:00,
2013-06-13 11:19:00,90.9,78.8,29.95,WNW,284,3.0,6.0,68,0.00,,,0.00,805.0,meteohub,2013-06-13 15:19:00,
2013-06-13 11:26:00,90.7,79.2,29.95,West,273,3.0,6.0,69,0.00,,,0.00,844.0,meteohub,2013-06-13 15:26:00,
2013-06-13 11:32:00,91.0,79.5,29.95,West,273,1.0,6.0,69,0.00,,,0.00,893.0,meteohub,2013-06-13 15:32:00,
2013-06-13 11:37:00,91.2,79.2,29.95,SW,229,2.0,6.0,68,0.00,,,0.00,926.0,meteohub,2013-06-13 15:37:00,
2013-06-13 11:44:00,91.6,79.0,29.95,West,281,0.0,6.0,67,0.00,,,0.00,967.0,meteohub,2013-06-13 15:44:00,
2013-06-13 11:50:00,90.9,78.4,29.94,WSW,238,0.0,5.0,67,0.00,,,0.00,225.0,meteohub,2013-06-13 15:50:00,
2013-06-13 11:56:00,91.2,78.3,29.95,NNW,335,0.0,5.0,66,0.00,,,0.00,197.0,meteohub,2013-06-13 15:56:00,
2013-06-13 12:02:00,90.3,77.9,29.94,West,267,2.0,3.0,67,0.00,,,0.00,241.0,meteohub,2013-06-13 16:02:00,
2013-06-13 12:07:00,90.0,78.4,29.94,West,277,2.0,3.0,69,0.00,,,0.00,209.0,meteohub,2013-06-13 16:07:00,
2013-06-13 12:12:00,90.1,79.0,29.94,West,260,2.0,6.0,70,0.00,,,0.00,981.0,meteohub,2013-06-13 16:12:00,
2013-06-13 12:18:00,91.2,78.8,29.94,WNW,284,4.0,6.0,67,0.00,,,0.00,942.0,meteohub,2013-06-13 16:18:00,
2013-06-13 12:24:00,91.8,80.1,29.94,West,264,0.0,6.0,69,0.00,,,0.00,963.0,meteohub,2013-06-13 16:24:00,
2013-06-13 12:30:00,92.1,79.5,29.93,WSW,252,0.0,6.0,67,0.00,,,0.00,190.0,meteohub,2013-06-13 16:30:00,
2013-06-13 12:37:00,91.8,78.8,29.93,West,269,0.0,6.0,66,0.00,,,0.00,1041.0,meteohub,2013-06-13 16:37:00,
2013-06-13 12:42:00,92.7,79.2,29.93,West,271,2.0,6.0,65,0.00,,,0.00,193.0,meteohub,2013-06-13 16:42:00,
2013-06-13 12:47:00,92.3,78.8,29.93,West,259,1.0,6.0,65,0.00,,,0.00,956.0,meteohub,2013-06-13 16:47:00,
2013-06-13 12:52:00,92.7,80.1,29.93,West,274,1.0,7.0,67,0.00,,,0.00,979.0,meteohub,2013-06-13 16:52:00,
2013-06-13 12:57:00,92.7,78.6,29.93,West,265,0.0,7.0,64,0.00,,,0.00,991.0,meteohub,2013-06-13 16:57:00,
2013-06-13 13:02:00,92.7,78.6,29.92,SW,230,2.0,7.0,64,0.00,,,0.00,967.0,meteohub,2013-06-13 17:02:00,
2013-06-13 13:07:00,93.2,77.2,29.92,WSW,246,3.0,7.0,60,0.00,,,0.00,946.0,meteohub,2013-06-13 17:07:00,
2013-06-13 13:12:00,93.0,78.1,29.92,WSW,249,1.0,5.0,62,0.00,,,0.00,960.0,meteohub,2013-06-13 17:12:00,
2013-06-13 13:17:00,93.2,78.8,29.91,WSW,238,1.0,6.0,63,0.00,,,0.00,949.0,meteohub,2013-06-13 17:17:00,
2013-06-13 13:23:00,93.4,78.4,29.91,WSW,254,3.0,7.0,62,0.00,,,0.00,972.0,meteohub,2013-06-13 17:23:00,
2013-06-13 13:29:00,93.0,78.1,29.91,WNW,288,5.0,11.0,62,0.00,,,0.00,995.0,meteohub,2013-06-13 17:29:00,
2013-06-13 13:35:00,93.0,78.6,29.91,West,278,2.0,11.0,63,0.00,,,0.00,946.0,meteohub,2013-06-13 17:35:00,
2013-06-13 13:41:00,93.9,79.0,29.90,West,277,0.0,11.0,62,0.00,,,0.00,979.0,meteohub,2013-06-13 17:41:00,
2013-06-13 13:47:00,93.6,78.6,29.90,West,277,4.0,10.0,62,0.00,,,0.00,1011.0,meteohub,2013-06-13 17:47:00,
2013-06-13 13:54:00,93.6,78.1,29.89,West,260,0.0,7.0,61,0.00,,,0.00,944.0,meteohub,2013-06-13 17:54:00,
2013-06-13 14:00:00,93.9,77.4,29.89,West,265,2.0,7.0,59,0.00,,,0.00,946.0,meteohub,2013-06-13 18:00:00,
2013-06-13 14:06:00,94.5,77.4,29.89,SW,229,0.0,7.0,58,0.00,,,0.00,997.0,meteohub,2013-06-13 18:06:00,
2013-06-13 14:12:00,94.6,79.5,29.89,WSW,243,1.0,7.0,62,0.00,,,0.00,979.0,meteohub,2013-06-13 18:12:00,
2013-06-13 14:17:00,93.2,77.7,29.89,West,263,0.0,4.0,61,0.00,,,0.00,262.0,meteohub,2013-06-13 18:17:00,
2013-06-13 14:22:00,93.7,78.8,29.89,West,275,2.0,4.0,62,0.00,,,0.00,983.0,meteohub,2013-06-13 18:22:00,
2013-06-13 14:27:00,94.6,79.2,29.88,West,264,2.0,5.0,61,0.00,,,0.00,930.0,meteohub,2013-06-13 18:27:00,
2013-06-13 14:34:00,94.6,79.2,29.88,West,267,0.0,5.0,61,0.00,,,0.00,963.0,meteohub,2013-06-13 18:34:00,
2013-06-13 14:40:00,94.5,77.4,29.88,West,271,4.0,5.0,58,0.00,,,0.00,976.0,meteohub,2013-06-13 18:40:00,
2013-06-13 14:46:00,93.6,77.0,29.88,West,275,3.0,8.0,59,0.00,,,0.00,1020.0,meteohub,2013-06-13 18:46:00,
2013-06-13 14:52:00,93.9,77.9,29.87,WSW,241,2.0,8.0,60,0.00,,,0.00,947.0,meteohub,2013-06-13 18:52:00,
2013-06-13 14:58:00,94.1,77.0,29.87,West,269,0.0,10.0,58,0.00,,,0.00,181.0,meteohub,2013-06-13 18:58:00,
2013-06-13 15:04:00,93.9,77.9,29.87,NW,306,6.0,10.0,60,0.00,,,0.00,947.0,meteohub,2013-06-13 19:04:00,
2013-06-13 15:10:00,93.4,78.4,29.87,SW,234,0.0,10.0,62,0.00,,,0.00,912.0,meteohub,2013-06-13 19:10:00,
2013-06-13 15:17:00,93.9,77.4,29.86,West,274,2.0,8.0,59,0.00,,,0.00,165.0,meteohub,2013-06-13 19:17:00,
2013-06-13 15:22:00,93.6,77.5,29.86,West,265,1.0,8.0,60,0.00,,,0.00,893.0,meteohub,2013-06-13 19:22:00,
2013-06-13 15:27:00,93.7,79.2,29.86,SW,226,2.0,5.0,63,0.00,,,0.00,918.0,meteohub,2013-06-13 19:27:00,
2013-06-13 15:32:00,93.9,77.9,29.86,SW,225,0.0,5.0,60,0.00,,,0.00,257.0,meteohub,2013-06-13 19:32:00,
2013-06-13 15:37:00,94.3,77.7,29.86,West,260,0.0,4.0,59,0.00,,,0.00,882.0,meteohub,2013-06-13 19:37:00,
2013-06-13 15:42:00,94.8,77.2,29.85,SW,234,0.0,5.0,57,0.00,,,0.00,849.0,meteohub,2013-06-13 19:42:00,
2013-06-13 15:47:00,95.2,77.0,29.85,WSW,237,1.0,5.0,56,0.00,,,0.00,837.0,meteohub,2013-06-13 19:47:00,
2013-06-13 15:52:00,95.0,77.4,29.85,WSW,241,3.0,5.0,57,0.00,,,0.00,828.0,meteohub,2013-06-13 19:52:00,
2013-06-13 15:57:00,94.6,77.0,29.85,WSW,248,2.0,7.0,57,0.00,,,0.00,821.0,meteohub,2013-06-13 19:57:00,
2013-06-13 16:03:00,94.8,76.6,29.85,WSW,244,1.0,7.0,56,0.00,,,0.00,789.0,meteohub,2013-06-13 20:03:00,
2013-06-13 16:09:00,95.2,78.6,29.84,West,259,2.0,7.0,59,0.00,,,0.00,803.0,meteohub,2013-06-13 20:09:00,
2013-06-13 16:15:00,94.8,76.6,29.84,WSW,247,2.0,7.0,56,0.00,,,0.00,232.0,meteohub,2013-06-13 20:15:00,
2013-06-13 16:21:00,94.8,77.7,29.83,West,267,0.0,9.0,58,0.00,,,0.00,756.0,meteohub,2013-06-13 20:21:00,
2013-06-13 16:27:00,95.7,77.0,29.83,WSW,252,4.0,9.0,55,0.00,,,0.00,705.0,meteohub,2013-06-13 20:27:00,
2013-06-13 16:32:00,95.0,76.8,29.83,WNW,283,2.0,9.0,56,0.00,,,0.00,708.0,meteohub,2013-06-13 20:32:00,
2013-06-13 16:37:00,94.8,76.1,29.83,West,259,1.0,6.0,55,0.00,,,0.00,682.0,meteohub,2013-06-13 20:37:00,
2013-06-13 16:42:00,94.6,78.1,29.83,West,266,1.0,6.0,59,0.00,,,0.00,682.0,meteohub,2013-06-13 20:42:00,
2013-06-13 16:47:00,95.2,78.6,29.83,WSW,257,1.0,7.0,59,0.00,,,0.00,671.0,meteohub,2013-06-13 20:47:00,
2013-06-13 16:52:00,95.0,77.9,29.83,WSW,257,0.0,7.0,58,0.00,,,0.00,422.0,meteohub,2013-06-13 20:52:00,
2013-06-13 16:57:00,94.6,77.0,29.83,WNW,284,0.0,6.0,57,0.00,,,0.00,636.0,meteohub,2013-06-13 20:57:00,
2013-06-13 17:02:00,94.6,77.0,29.83,WSW,257,3.0,6.0,57,0.00,,,0.00,619.0,meteohub,2013-06-13 21:02:00,
2013-06-13 17:07:00,94.6,76.5,29.83,SW,232,1.0,6.0,56,0.00,,,0.00,613.0,meteohub,2013-06-13 21:07:00,
2013-06-13 17:12:00,94.3,77.2,29.83,WSW,248,0.0,6.0,58,0.00,,,0.00,188.0,meteohub,2013-06-13 21:12:00,
2013-06-13 17:17:00,93.6,77.0,29.82,West,266,1.0,9.0,59,0.00,,,0.00,227.0,meteohub,2013-06-13 21:17:00,
2013-06-13 17:23:00,93.0,76.6,29.83,West,270,1.0,9.0,59,0.00,,,0.00,225.0,meteohub,2013-06-13 21:23:00,
2013-06-13 17:29:00,92.7,76.3,29.83,West,265,1.0,9.0,59,0.00,,,0.00,144.0,meteohub,2013-06-13 21:29:00,
2013-06-13 17:35:00,91.9,77.5,29.83,WNW,299,1.0,6.0,63,0.00,,,0.00,160.0,meteohub,2013-06-13 21:35:00,
2013-06-13 17:41:00,91.0,77.5,29.83,West,275,0.0,10.0,65,0.00,,,0.00,552.0,meteohub,2013-06-13 21:41:00,
2013-06-13 17:47:00,91.6,78.1,29.82,West,268,0.0,10.0,65,0.00,,,0.00,527.0,meteohub,2013-06-13 21:47:00,
2013-06-13 17:52:00,91.8,78.3,29.83,WNW,282,0.0,10.0,65,0.00,,,0.00,171.0,meteohub,2013-06-13 21:52:00,
2013-06-13 17:57:00,91.6,78.1,29.82,West,269,3.0,9.0,65,0.00,,,0.00,320.0,meteohub,2013-06-13 21:57:00,
2013-06-13 18:03:00,91.2,78.3,29.82,WNW,293,0.0,9.0,66,0.00,,,0.00,171.0,meteohub,2013-06-13 22:03:00,
2013-06-13 18:09:00,91.0,78.6,29.82,East,96,0.0,9.0,67,0.00,,,0.00,153.0,meteohub,2013-06-13 22:09:00,
2013-06-13 18:15:00,90.9,78.8,29.81,WSW,258,0.0,7.0,68,0.00,,,0.00,185.0,meteohub,2013-06-13 22:15:00,
2013-06-13 18:21:00,90.9,78.8,29.81,West,270,2.0,5.0,68,0.00,,,0.00,169.0,meteohub,2013-06-13 22:21:00,
2013-06-13 18:27:00,90.9,78.8,29.81,WNW,283,1.0,5.0,68,0.00,,,0.00,84.0,meteohub,2013-06-13 22:27:00,
2013-06-13 18:32:00,90.9,78.8,29.81,West,281,0.0,7.0,68,0.00,,,0.00,70.0,meteohub,2013-06-13 22:32:00,
2013-06-13 18:37:00,90.9,78.8,29.81,West,280,0.0,7.0,68,0.00,,,0.00,148.0,meteohub,2013-06-13 22:37:00,
2013-06-13 18:43:00,90.9,79.3,29.81,West,281,0.0,5.0,69,0.00,,,0.00,114.0,meteohub,2013-06-13 22:43:00,
2013-06-13 18:49:00,90.7,79.2,29.81,West,269,1.0,5.0,69,0.00,,,0.00,183.0,meteohub,2013-06-13 22:49:00,
2013-06-13 18:55:00,90.5,79.0,29.81,West,266,0.0,9.0,69,0.00,,,0.00,113.0,meteohub,2013-06-13 22:55:00,
2013-06-13 19:02:00,90.3,78.8,29.81,West,262,2.0,9.0,69,0.00,,,0.00,95.0,meteohub,2013-06-13 23:02:00,
2013-06-13 19:07:00,90.1,78.6,29.81,West,278,0.0,9.0,69,0.00,,,0.00,88.0,meteohub,2013-06-13 23:07:00,
2013-06-13 19:12:00,90.1,78.6,29.81,WNW,288,0.0,9.0,69,0.00,,,0.00,91.0,meteohub,2013-06-13 23:12:00,
2013-06-13 19:17:00,90.0,78.8,29.81,West,267,0.0,10.0,70,0.00,,,0.00,76.0,meteohub,2013-06-13 23:17:00,
2013-06-13 19:23:00,89.8,78.3,29.82,NNW,340,0.0,12.0,69,0.00,,,0.00,79.0,meteohub,2013-06-13 23:23:00,
2013-06-13 19:29:00,89.6,78.1,29.81,WNW,288,0.0,12.0,69,0.00,,,0.00,56.0,meteohub,2013-06-13 23:29:00,
2013-06-13 19:36:00,89.2,77.7,29.81,West,272,0.0,12.0,69,0.00,,,0.00,49.0,meteohub,2013-06-13 23:36:00,
2013-06-13 19:42:00,89.1,78.1,29.81,West,271,1.0,7.0,70,0.00,,,0.00,42.0,meteohub,2013-06-13 23:42:00,
2013-06-13 19:47:00,88.9,78.3,29.82,West,263,0.0,7.0,71,0.00,,,0.00,39.0,meteohub,2013-06-13 23:47:00,
2013-06-13 19:54:00,88.5,78.3,29.83,WSW,254,0.0,7.0,72,0.00,,,0.00,32.0,meteohub,2013-06-13 23:54:00,
2013-06-13 20:00:00,88.2,77.5,29.83,WSW,248,2.0,4.0,71,0.00,,,0.00,26.0,meteohub,2013-06-14 00:00:00,
2013-06-13 20:06:00,87.8,77.7,29.83,West,259,1.0,5.0,72,0.00,,,0.00,21.0,meteohub,2013-06-14 00:06:00,
2013-06-13 20:12:00,87.4,77.4,29.83,West,260,0.0,5.0,72,0.00,,,0.00,16.0,meteohub,2013-06-14 00:12:00,
2013-06-13 20:17:00,87.4,77.7,29.83,West,262,0.0,5.0,73,0.00,,,0.00,12.0,meteohub,2013-06-14 00:17:00,
2013-06-13 20:22:00,87.3,77.9,29.83,West,262,0.0,5.0,74,0.00,,,0.00,9.0,meteohub,2013-06-14 00:22:00,
2013-06-13 20:27:00,86.9,77.5,29.84,West,265,0.0,3.0,74,0.00,,,0.00,5.0,meteohub,2013-06-14 00:27:00,
2013-06-13 20:32:00,86.7,77.9,29.84,West,272,0.0,3.0,75,0.00,,,0.00,0.0,meteohub,2013-06-14 00:32:00,
2013-06-13 20:37:00,86.4,77.5,29.84,WNW,285,0.0,6.0,75,0.00,,,0.00,0.0,meteohub,2013-06-14 00:37:00,
2013-06-13 20:43:00,86.2,77.7,29.84,West,273,1.0,6.0,76,0.00,,,0.00,0.0,meteohub,2013-06-14 00:43:00,
2013-06-13 20:50:00,85.8,77.7,29.84,West,271,0.0,6.0,77,0.00,,,0.00,0.0,meteohub,2013-06-14 00:50:00,
2013-06-13 20:56:00,85.6,77.5,29.83,West,275,0.0,4.0,77,0.00,,,0.00,0.0,meteohub,2013-06-14 00:56:00,
2013-06-13 21:02:00,85.3,77.2,29.84,West,275,0.0,4.0,77,0.00,,,0.00,0.0,meteohub,2013-06-14 01:02:00,
2013-06-13 21:07:00,85.1,77.5,29.84,West,275,0.0,4.0,78,0.00,,,0.00,0.0,meteohub,2013-06-14 01:07:00,
2013-06-13 21:12:00,84.9,77.4,29.84,West,275,0.0,4.0,78,0.00,,,0.00,0.0,meteohub,2013-06-14 01:12:00,
2013-06-13 21:17:00,84.7,77.2,29.84,West,275,0.0,3.0,78,0.00,,,0.00,0.0,meteohub,2013-06-14 01:17:00,
2013-06-13 21:22:00,84.6,77.4,29.84,West,264,0.0,3.0,79,0.00,,,0.00,0.0,meteohub,2013-06-14 01:22:00,
2013-06-13 21:27:00,84.4,77.2,29.84,West,276,0.0,5.0,79,0.00,,,0.00,0.0,meteohub,2013-06-14 01:27:00,
2013-06-13 21:32:00,84.0,76.8,29.84,West,275,0.0,5.0,79,0.00,,,0.00,0.0,meteohub,2013-06-14 01:32:00,
2013-06-13 21:37:00,84.0,77.2,29.84,West,274,0.0,5.0,80,0.00,,,0.00,0.0,meteohub,2013-06-14 01:37:00,
2013-06-13 21:42:00,83.8,76.6,29.85,WNW,282,0.0,7.0,79,0.00,,,0.00,0.0,meteohub,2013-06-14 01:42:00,
2013-06-13 21:47:00,83.7,76.8,29.85,West,277,1.0,9.0,80,0.00,,,0.00,0.0,meteohub,2013-06-14 01:47:00,
2013-06-13 21:54:00,83.7,76.8,29.86,West,266,2.0,9.0,80,0.00,,,0.00,0.0,meteohub,2013-06-14 01:54:00,
2013-06-13 22:00:00,83.5,76.6,29.86,West,263,1.0,6.0,80,0.00,,,0.00,0.0,meteohub,2013-06-14 02:00:00,
2013-06-13 22:07:00,83.5,77.0,29.86,West,267,0.0,6.0,81,0.00,,,0.00,0.0,meteohub,2013-06-14 02:07:00,
2013-06-13 22:12:00,83.3,76.8,29.87,West,263,0.0,6.0,81,0.00,,,0.00,0.0,meteohub,2013-06-14 02:12:00,
2013-06-13 22:19:00,83.1,76.6,29.87,West,275,4.0,4.0,81,0.00,,,0.00,0.0,meteohub,2013-06-14 02:19:00,
2013-06-13 22:25:00,82.9,76.8,29.87,WSW,243,0.0,5.0,82,0.00,,,0.00,0.0,meteohub,2013-06-14 02:25:00,
2013-06-13 22:31:00,82.8,76.6,29.86,WSW,247,0.0,5.0,82,0.00,,,0.00,0.0,meteohub,2013-06-14 02:31:00,
2013-06-13 22:37:00,82.8,76.6,29.87,WSW,248,0.0,5.0,82,0.00,,,0.00,0.0,meteohub,2013-06-14 02:37:00,
2013-06-13 22:44:00,82.4,76.6,29.87,West,276,0.0,2.0,83,0.00,,,0.00,0.0,meteohub,2013-06-14 02:44:00,
2013-06-13 22:50:00,82.2,76.5,29.85,West,275,4.0,4.0,83,0.00,,,0.00,0.0,meteohub,2013-06-14 02:50:00,
2013-06-13 22:56:00,82.0,76.3,29.85,West,278,0.0,3.0,83,0.00,,,0.00,0.0,meteohub,2013-06-14 02:56:00,
2013-06-13 23:06:00,81.9,76.1,29.85,West,260,3.0,5.0,83,0.00,,,0.00,0.0,meteohub,2013-06-14 03:06:00,
2013-06-13 23:12:00,81.5,76.3,29.86,WSW,255,0.0,8.0,84,0.00,,,0.00,0.0,meteohub,2013-06-14 03:12:00,
2013-06-13 23:17:00,81.5,76.3,29.84,WSW,257,0.0,8.0,84,0.00,,,0.00,0.0,meteohub,2013-06-14 03:17:00,
2013-06-13 23:22:00,81.3,76.1,29.85,WSW,256,0.0,6.0,84,0.00,,,0.00,0.0,meteohub,2013-06-14 03:22:00,
2013-06-13 23:27:00,81.3,76.1,29.84,West,270,0.0,5.0,84,0.00,,,0.00,0.0,meteohub,2013-06-14 03:27:00,
2013-06-13 23:32:00,81.1,75.9,29.85,West,264,3.0,5.0,84,0.00,,,0.00,0.0,meteohub,2013-06-14 03:32:00,
2013-06-13 23:37:00,81.1,76.3,29.85,West,273,2.0,3.0,85,0.00,,,0.00,0.0,meteohub,2013-06-14 03:37:00,
2013-06-13 23:42:00,81.0,76.1,29.85,West,277,1.0,3.0,85,0.00,,,0.00,0.0,meteohub,2013-06-14 03:42:00,
2013-06-13 23:47:00,81.0,76.1,29.85,WSW,254,1.0,5.0,85,0.00,,,0.00,0.0,meteohub,2013-06-14 03:47:00,
2013-06-13 23:52:00,80.8,75.9,29.85,WSW,246,0.0,5.0,85,0.00,,,0.00,0.0,meteohub,2013-06-14 03:52:00,
2013-06-13 23:57:00,80.8,76.3,29.85,WSW,256,2.0,6.0,86,0.00,,,0.00,0.0,meteohub,2013-06-14 03:57:00,